sensor_id;sensor_type;location;lat;lon;timestamp;temperature;humidity
67358;HTU21D;54240;51.096;5.878;2022-07-06T00:01:46;13.59;118.99
67358;HTU21D;54240;51.096;5.878;2022-07-06T00:04:12;13.55;118.99
67358;HTU21D;54240;51.096;5.878;2022-07-06T00:06:38;13.55;118.99
67358;HTU21D;54240;51.096;5.878;2022-07-06T00:09:05;13.54;118.99
67358;HTU21D;54240;51.096;5.878;2022-07-06T00:11:31;13.54;118.99
67358;HTU21D;54240;51.096;5.878;2022-07-06T00:13:57;13.51;118.99
67358;HTU21D;54240;51.096;5.878;2022-07-06T00:16:23;13.46;118.99
67358;HTU21D;54240;51.096;5.878;2022-07-06T00:18:49;13.44;118.99
67358;HTU21D;54240;51.096;5.878;2022-07-06T00:21:15;13.40;118.99
67358;HTU21D;54240;51.096;5.878;2022-07-06T00:23:41;13.38;118.99
67358;HTU21D;54240;51.096;5.878;2022-07-06T00:26:07;13.35;118.99
67358;HTU21D;54240;51.096;5.878;2022-07-06T00:28:33;13.33;118.99
67358;HTU21D;54240;51.096;5.878;2022-07-06T00:30:59;13.27;118.99
67358;HTU21D;54240;51.096;5.878;2022-07-06T00:33:25;13.24;118.99
67358;HTU21D;54240;51.096;5.878;2022-07-06T00:35:51;13.26;118.99
67358;HTU21D;54240;51.096;5.878;2022-07-06T00:38:17;13.23;118.99
67358;HTU21D;54240;51.096;5.878;2022-07-06T00:40:43;13.17;118.99
67358;HTU21D;54240;51.096;5.878;2022-07-06T00:43:08;13.11;118.99
67358;HTU21D;54240;51.096;5.878;2022-07-06T00:45:34;13.05;118.99
67358;HTU21D;54240;51.096;5.878;2022-07-06T00:48:01;13.01;118.99
67358;HTU21D;54240;51.096;5.878;2022-07-06T00:50:26;12.99;118.99
67358;HTU21D;54240;51.096;5.878;2022-07-06T00:53:00;12.93;118.99
67358;HTU21D;54240;51.096;5.878;2022-07-06T00:55:29;12.92;118.99
67358;HTU21D;54240;51.096;5.878;2022-07-06T00:57:56;12.85;118.99
67358;HTU21D;54240;51.096;5.878;2022-07-06T01:00:25;12.82;118.99
67358;HTU21D;54240;51.096;5.878;2022-07-06T01:02:52;12.78;118.99
67358;HTU21D;54240;51.096;5.878;2022-07-06T01:05:19;12.75;118.99
67358;HTU21D;54240;51.096;5.878;2022-07-06T01:07:47;12.69;118.99
67358;HTU21D;54240;51.096;5.878;2022-07-06T01:10:15;12.69;118.99
67358;HTU21D;54240;51.096;5.878;2022-07-06T01:12:43;12.70;118.99
67358;HTU21D;54240;51.096;5.878;2022-07-06T01:15:13;12.70;118.99
67358;HTU21D;54240;51.096;5.878;2022-07-06T01:17:41;12.66;118.99
67358;HTU21D;54240;51.096;5.878;2022-07-06T01:20:14;12.64;118.99
67358;HTU21D;54240;51.096;5.878;2022-07-06T01:22:41;12.62;118.99
67358;HTU21D;54240;51.096;5.878;2022-07-06T01:25:08;12.57;118.99
67358;HTU21D;54240;51.096;5.878;2022-07-06T01:27:36;12.52;118.99
67358;HTU21D;54240;51.096;5.878;2022-07-06T01:30:09;12.44;118.99
67358;HTU21D;54240;51.096;5.878;2022-07-06T01:32:37;12.46;118.99
67358;HTU21D;54240;51.096;5.878;2022-07-06T01:35:09;12.37;118.99
67358;HTU21D;54240;51.096;5.878;2022-07-06T01:37:35;12.40;118.99
67358;HTU21D;54240;51.096;5.878;2022-07-06T01:40:07;12.41;118.99
67358;HTU21D;54240;51.096;5.878;2022-07-06T01:42:34;12.37;118.99
67358;HTU21D;54240;51.096;5.878;2022-07-06T01:44:59;12.35;118.99
67358;HTU21D;54240;51.096;5.878;2022-07-06T01:47:25;12.33;118.99
67358;HTU21D;54240;51.096;5.878;2022-07-06T01:49:52;12.37;118.99
67358;HTU21D;54240;51.096;5.878;2022-07-06T01:52:18;12.32;118.99
67358;HTU21D;54240;51.096;5.878;2022-07-06T01:54:44;12.25;118.99
67358;HTU21D;54240;51.096;5.878;2022-07-06T01:57:10;12.26;118.99
67358;HTU21D;54240;51.096;5.878;2022-07-06T01:59:37;12.21;118.99
67358;HTU21D;54240;51.096;5.878;2022-07-06T02:02:03;12.18;118.99
67358;HTU21D;54240;51.096;5.878;2022-07-06T02:04:30;12.17;118.99
67358;HTU21D;54240;51.096;5.878;2022-07-06T02:06:56;12.12;118.99
67358;HTU21D;54240;51.096;5.878;2022-07-06T02:09:22;12.14;118.99
67358;HTU21D;54240;51.096;5.878;2022-07-06T02:11:48;12.07;118.99
67358;HTU21D;54240;51.096;5.878;2022-07-06T02:14:15;12.07;118.99
67358;HTU21D;54240;51.096;5.878;2022-07-06T02:16:42;12.11;118.99
67358;HTU21D;54240;51.096;5.878;2022-07-06T02:19:08;12.08;118.99
67358;HTU21D;54240;51.096;5.878;2022-07-06T02:21:34;12.07;118.99
67358;HTU21D;54240;51.096;5.878;2022-07-06T02:23:59;12.11;118.99
67358;HTU21D;54240;51.096;5.878;2022-07-06T02:26:28;12.08;118.99
67358;HTU21D;54240;51.096;5.878;2022-07-06T02:28:54;12.05;118.99
67358;HTU21D;54240;51.096;5.878;2022-07-06T02:31:20;12.01;118.99
67358;HTU21D;54240;51.096;5.878;2022-07-06T02:33:48;11.96;118.99
67358;HTU21D;54240;51.096;5.878;2022-07-06T02:36:14;12.01;118.99
67358;HTU21D;54240;51.096;5.878;2022-07-06T02:38:41;11.99;118.99
67358;HTU21D;54240;51.096;5.878;2022-07-06T02:41:07;12.01;118.99
67358;HTU21D;54240;51.096;5.878;2022-07-06T02:43:33;12.00;118.99
67358;HTU21D;54240;51.096;5.878;2022-07-06T02:45:59;12.00;118.99
67358;HTU21D;54240;51.096;5.878;2022-07-06T02:48:26;11.97;118.99
67358;HTU21D;54240;51.096;5.878;2022-07-06T02:50:52;11.96;118.99
67358;HTU21D;54240;51.096;5.878;2022-07-06T02:53:18;11.93;118.99
67358;HTU21D;54240;51.096;5.878;2022-07-06T02:55:47;11.88;118.99
67358;HTU21D;54240;51.096;5.878;2022-07-06T02:58:13;11.86;118.99
67358;HTU21D;54240;51.096;5.878;2022-07-06T03:00:39;11.84;118.99
67358;HTU21D;54240;51.096;5.878;2022-07-06T03:03:05;11.79;118.99
67358;HTU21D;54240;51.096;5.878;2022-07-06T03:05:32;11.77;118.99
67358;HTU21D;54240;51.096;5.878;2022-07-06T03:07:58;11.72;118.99
67358;HTU21D;54240;51.096;5.878;2022-07-06T03:10:25;11.70;118.99
67358;HTU21D;54240;51.096;5.878;2022-07-06T03:12:50;11.66;118.99
67358;HTU21D;54240;51.096;5.878;2022-07-06T03:15:16;11.64;118.99
67358;HTU21D;54240;51.096;5.878;2022-07-06T03:17:45;11.63;118.99
67358;HTU21D;54240;51.096;5.878;2022-07-06T03:20:11;11.64;118.99
67358;HTU21D;54240;51.096;5.878;2022-07-06T03:22:39;11.64;118.99
67358;HTU21D;54240;51.096;5.878;2022-07-06T03:25:05;11.67;118.99
67358;HTU21D;54240;51.096;5.878;2022-07-06T03:27:32;11.63;118.99
67358;HTU21D;54240;51.096;5.878;2022-07-06T03:30:00;11.66;118.99
67358;HTU21D;54240;51.096;5.878;2022-07-06T03:32:26;11.61;118.99
67358;HTU21D;54240;51.096;5.878;2022-07-06T03:34:52;11.62;118.99
67358;HTU21D;54240;51.096;5.878;2022-07-06T03:37:18;11.66;118.99
67358;HTU21D;54240;51.096;5.878;2022-07-06T03:39:44;11.66;118.99
67358;HTU21D;54240;51.096;5.878;2022-07-06T03:42:11;11.66;118.99
67358;HTU21D;54240;51.096;5.878;2022-07-06T03:44:36;11.67;118.99
67358;HTU21D;54240;51.096;5.878;2022-07-06T03:47:03;11.70;118.99
67358;HTU21D;54240;51.096;5.878;2022-07-06T03:49:29;11.68;118.99
67358;HTU21D;54240;51.096;5.878;2022-07-06T03:51:58;11.66;118.99
67358;HTU21D;54240;51.096;5.878;2022-07-06T03:54:25;11.56;118.99
67358;HTU21D;54240;51.096;5.878;2022-07-06T03:56:55;11.51;118.99
67358;HTU21D;54240;51.096;5.878;2022-07-06T03:59:21;11.49;118.99
67358;HTU21D;54240;51.096;5.878;2022-07-06T04:01:47;11.49;118.99
67358;HTU21D;54240;51.096;5.878;2022-07-06T04:04:15;11.54;118.99
67358;HTU21D;54240;51.096;5.878;2022-07-06T04:06:44;11.57;118.99
67358;HTU21D;54240;51.096;5.878;2022-07-06T04:09:10;11.63;118.99
67358;HTU21D;54240;51.096;5.878;2022-07-06T04:11:36;11.70;118.99
67358;HTU21D;54240;51.096;5.878;2022-07-06T04:14:03;11.75;118.99
67358;HTU21D;54240;51.096;5.878;2022-07-06T04:16:29;11.85;118.99
67358;HTU21D;54240;51.096;5.878;2022-07-06T04:18:55;11.89;118.99
67358;HTU21D;54240;51.096;5.878;2022-07-06T04:21:21;11.96;118.99
67358;HTU21D;54240;51.096;5.878;2022-07-06T04:23:47;12.01;118.99
67358;HTU21D;54240;51.096;5.878;2022-07-06T04:26:13;12.03;118.99
67358;HTU21D;54240;51.096;5.878;2022-07-06T04:28:40;12.05;118.99
67358;HTU21D;54240;51.096;5.878;2022-07-06T04:31:06;12.06;118.99
67358;HTU21D;54240;51.096;5.878;2022-07-06T04:33:32;12.08;118.99
67358;HTU21D;54240;51.096;5.878;2022-07-06T04:35:59;12.10;118.99
67358;HTU21D;54240;51.096;5.878;2022-07-06T04:38:32;12.08;118.99
67358;HTU21D;54240;51.096;5.878;2022-07-06T04:41:02;12.08;118.99
67358;HTU21D;54240;51.096;5.878;2022-07-06T04:43:29;12.10;118.99
67358;HTU21D;54240;51.096;5.878;2022-07-06T04:45:55;12.12;118.99
67358;HTU21D;54240;51.096;5.878;2022-07-06T04:48:21;12.13;118.99
67358;HTU21D;54240;51.096;5.878;2022-07-06T04:50:48;12.16;118.99
67358;HTU21D;54240;51.096;5.878;2022-07-06T04:53:19;12.19;118.99
67358;HTU21D;54240;51.096;5.878;2022-07-06T04:55:46;12.23;118.99
67358;HTU21D;54240;51.096;5.878;2022-07-06T04:58:12;12.30;118.99
67358;HTU21D;54240;51.096;5.878;2022-07-06T05:00:38;12.35;118.99
67358;HTU21D;54240;51.096;5.878;2022-07-06T05:03:04;12.43;118.99
67358;HTU21D;54240;51.096;5.878;2022-07-06T05:05:30;12.48;118.99
67358;HTU21D;54240;51.096;5.878;2022-07-06T05:07:57;12.59;118.99
67358;HTU21D;54240;51.096;5.878;2022-07-06T05:10:24;12.60;118.99
67358;HTU21D;54240;51.096;5.878;2022-07-06T05:12:54;12.70;118.99
67358;HTU21D;54240;51.096;5.878;2022-07-06T05:15:21;12.81;118.99
67358;HTU21D;54240;51.096;5.878;2022-07-06T05:17:46;12.92;118.99
67358;HTU21D;54240;51.096;5.878;2022-07-06T05:20:13;13.05;118.99
67358;HTU21D;54240;51.096;5.878;2022-07-06T05:22:42;13.12;118.99
67358;HTU21D;54240;51.096;5.878;2022-07-06T05:25:08;13.26;118.99
67358;HTU21D;54240;51.096;5.878;2022-07-06T05:27:34;13.40;118.99
67358;HTU21D;54240;51.096;5.878;2022-07-06T05:30:01;13.53;118.99
67358;HTU21D;54240;51.096;5.878;2022-07-06T05:32:28;13.65;118.99
67358;HTU21D;54240;51.096;5.878;2022-07-06T05:34:54;13.78;118.99
67358;HTU21D;54240;51.096;5.878;2022-07-06T05:37:20;13.84;118.99
67358;HTU21D;54240;51.096;5.878;2022-07-06T05:39:46;13.89;118.99
67358;HTU21D;54240;51.096;5.878;2022-07-06T05:42:15;14.00;118.99
67358;HTU21D;54240;51.096;5.878;2022-07-06T05:44:41;14.04;118.99
67358;HTU21D;54240;51.096;5.878;2022-07-06T05:47:07;14.13;118.99
67358;HTU21D;54240;51.096;5.878;2022-07-06T05:49:52;14.27;118.99
67358;HTU21D;54240;51.096;5.878;2022-07-06T05:52:44;14.48;118.99
67358;HTU21D;54240;51.096;5.878;2022-07-06T05:55:12;14.68;118.99
67358;HTU21D;54240;51.096;5.878;2022-07-06T05:57:39;14.81;118.99
67358;HTU21D;54240;51.096;5.878;2022-07-06T06:00:07;14.95;118.99
67358;HTU21D;54240;51.096;5.878;2022-07-06T06:02:43;15.01;118.99
67358;HTU21D;54240;51.096;5.878;2022-07-06T06:05:14;15.16;118.99
67358;HTU21D;54240;51.096;5.878;2022-07-06T06:07:42;15.12;118.99
67358;HTU21D;54240;51.096;5.878;2022-07-06T06:10:12;15.14;118.99
67358;HTU21D;54240;51.096;5.878;2022-07-06T06:12:39;15.30;118.99
67358;HTU21D;54240;51.096;5.878;2022-07-06T06:15:07;15.34;118.99
67358;HTU21D;54240;51.096;5.878;2022-07-06T06:17:33;15.42;118.99
67358;HTU21D;54240;51.096;5.878;2022-07-06T06:19:59;15.42;118.99
67358;HTU21D;54240;51.096;5.878;2022-07-06T06:22:26;15.69;118.99
67358;HTU21D;54240;51.096;5.878;2022-07-06T06:24:52;15.72;118.99
67358;HTU21D;54240;51.096;5.878;2022-07-06T06:27:19;15.88;118.99
67358;HTU21D;54240;51.096;5.878;2022-07-06T06:29:45;15.95;118.99
67358;HTU21D;54240;51.096;5.878;2022-07-06T06:32:12;16.07;118.99
67358;HTU21D;54240;51.096;5.878;2022-07-06T06:34:38;16.21;118.99
67358;HTU21D;54240;51.096;5.878;2022-07-06T06:37:05;16.22;118.99
67358;HTU21D;54240;51.096;5.878;2022-07-06T06:39:31;16.30;118.99
67358;HTU21D;54240;51.096;5.878;2022-07-06T06:41:58;16.48;118.99
67358;HTU21D;54240;51.096;5.878;2022-07-06T06:44:23;16.63;118.99
67358;HTU21D;54240;51.096;5.878;2022-07-06T06:46:50;16.64;118.99
67358;HTU21D;54240;51.096;5.878;2022-07-06T06:49:18;16.76;118.99
67358;HTU21D;54240;51.096;5.878;2022-07-06T06:51:44;16.74;118.99
67358;HTU21D;54240;51.096;5.878;2022-07-06T06:54:10;16.92;118.99
67358;HTU21D;54240;51.096;5.878;2022-07-06T06:56:36;16.99;118.99
67358;HTU21D;54240;51.096;5.878;2022-07-06T06:59:02;17.14;118.99
67358;HTU21D;54240;51.096;5.878;2022-07-06T07:01:28;17.21;118.99
67358;HTU21D;54240;51.096;5.878;2022-07-06T07:03:55;17.15;118.99
67358;HTU21D;54240;51.096;5.878;2022-07-06T07:06:21;17.29;118.99
67358;HTU21D;54240;51.096;5.878;2022-07-06T07:08:49;17.21;118.99
67358;HTU21D;54240;51.096;5.878;2022-07-06T07:11:15;17.35;118.99
67358;HTU21D;54240;51.096;5.878;2022-07-06T07:13:41;17.43;118.99
67358;HTU21D;54240;51.096;5.878;2022-07-06T07:16:07;17.55;118.99
67358;HTU21D;54240;51.096;5.878;2022-07-06T07:18:32;17.68;118.99
67358;HTU21D;54240;51.096;5.878;2022-07-06T07:20:58;17.92;118.99
67358;HTU21D;54240;51.096;5.878;2022-07-06T07:23:24;17.83;118.99
67358;HTU21D;54240;51.096;5.878;2022-07-06T07:25:50;17.94;118.99
67358;HTU21D;54240;51.096;5.878;2022-07-06T07:28:16;18.06;118.99
67358;HTU21D;54240;51.096;5.878;2022-07-06T07:30:42;17.91;118.99
67358;HTU21D;54240;51.096;5.878;2022-07-06T07:33:07;17.98;118.99
67358;HTU21D;54240;51.096;5.878;2022-07-06T07:35:33;17.78;118.99
67358;HTU21D;54240;51.096;5.878;2022-07-06T07:37:59;17.95;118.99
67358;HTU21D;54240;51.096;5.878;2022-07-06T07:40:25;18.29;118.99
67358;HTU21D;54240;51.096;5.878;2022-07-06T07:42:50;18.39;118.99
67358;HTU21D;54240;51.096;5.878;2022-07-06T07:45:16;18.11;118.99
67358;HTU21D;54240;51.096;5.878;2022-07-06T07:47:42;18.28;118.99
67358;HTU21D;54240;51.096;5.878;2022-07-06T07:50:09;18.37;107.97
67358;HTU21D;54240;51.096;5.878;2022-07-06T07:52:35;18.29;113.66
67358;HTU21D;54240;51.096;5.878;2022-07-06T07:55:01;18.36;112.67
67358;HTU21D;54240;51.096;5.878;2022-07-06T07:57:26;18.52;108.41
67358;HTU21D;54240;51.096;5.878;2022-07-06T07:59:52;18.54;110.65
67358;HTU21D;54240;51.096;5.878;2022-07-06T08:02:18;18.67;107.59
67358;HTU21D;54240;51.096;5.878;2022-07-06T08:04:44;18.49;93.82
67358;HTU21D;54240;51.096;5.878;2022-07-06T08:07:09;18.56;94.01
67358;HTU21D;54240;51.096;5.878;2022-07-06T08:09:35;18.98;76.98
67358;HTU21D;54240;51.096;5.878;2022-07-06T08:12:01;19.52;66.25
67358;HTU21D;54240;51.096;5.878;2022-07-06T08:14:27;19.97;37.53
67358;HTU21D;54240;51.096;5.878;2022-07-06T08:16:53;20.14;12.34
67358;HTU21D;54240;51.096;5.878;2022-07-06T08:19:19;20.19;6.16
67358;HTU21D;54240;51.096;5.878;2022-07-06T08:21:45;19.95;23.59
67358;HTU21D;54240;51.096;5.878;2022-07-06T08:24:11;19.95;27.38
67358;HTU21D;54240;51.096;5.878;2022-07-06T08:26:38;20.83;-6.00
67358;HTU21D;54240;51.096;5.878;2022-07-06T08:29:04;21.55;-6.00
67358;HTU21D;54240;51.096;5.878;2022-07-06T08:31:30;21.67;-6.00
67358;HTU21D;54240;51.096;5.878;2022-07-06T08:33:57;21.99;-6.00
67358;HTU21D;54240;51.096;5.878;2022-07-06T08:36:23;22.23;-6.00
67358;HTU21D;54240;51.096;5.878;2022-07-06T08:38:49;22.75;-6.00
67358;HTU21D;54240;51.096;5.878;2022-07-06T08:41:16;23.07;-6.00
67358;HTU21D;54240;51.096;5.878;2022-07-06T08:43:42;23.41;-6.00
67358;HTU21D;54240;51.096;5.878;2022-07-06T08:46:08;23.03;-6.00
67358;HTU21D;54240;51.096;5.878;2022-07-06T08:48:39;22.31;-6.00
67358;HTU21D;54240;51.096;5.878;2022-07-06T08:51:05;21.54;-6.00
67358;HTU21D;54240;51.096;5.878;2022-07-06T08:53:32;21.19;-6.00
67358;HTU21D;54240;51.096;5.878;2022-07-06T08:55:59;21.20;-6.00
67358;HTU21D;54240;51.096;5.878;2022-07-06T08:58:27;21.28;-6.00
67358;HTU21D;54240;51.096;5.878;2022-07-06T09:00:54;21.52;-6.00
67358;HTU21D;54240;51.096;5.878;2022-07-06T09:03:21;22.23;-6.00
67358;HTU21D;54240;51.096;5.878;2022-07-06T09:05:47;22.43;-6.00
67358;HTU21D;54240;51.096;5.878;2022-07-06T09:08:13;22.51;-6.00
67358;HTU21D;54240;51.096;5.878;2022-07-06T09:10:39;22.60;-6.00
67358;HTU21D;54240;51.096;5.878;2022-07-06T09:13:08;22.61;-6.00
67358;HTU21D;54240;51.096;5.878;2022-07-06T09:15:36;22.81;-6.00
67358;HTU21D;54240;51.096;5.878;2022-07-06T09:18:04;22.57;-6.00
67358;HTU21D;54240;51.096;5.878;2022-07-06T09:20:30;22.24;-6.00
67358;HTU21D;54240;51.096;5.878;2022-07-06T09:23:05;22.12;-6.00
67358;HTU21D;54240;51.096;5.878;2022-07-06T09:25:34;22.31;-6.00
67358;HTU21D;54240;51.096;5.878;2022-07-06T09:28:02;22.76;-6.00
67358;HTU21D;54240;51.096;5.878;2022-07-06T09:30:29;23.39;-6.00
67358;HTU21D;54240;51.096;5.878;2022-07-06T09:32:56;24.13;-6.00
67358;HTU21D;54240;51.096;5.878;2022-07-06T09:38:10;25.14;-6.00
67358;HTU21D;54240;51.096;5.878;2022-07-06T09:40:42;24.92;-6.00
67358;HTU21D;54240;51.096;5.878;2022-07-06T09:43:14;24.66;-6.00
67358;HTU21D;54240;51.096;5.878;2022-07-06T09:45:43;24.53;-6.00
67358;HTU21D;54240;51.096;5.878;2022-07-06T09:48:12;24.63;-6.00
67358;HTU21D;54240;51.096;5.878;2022-07-06T09:50:42;25.07;-6.00
67358;HTU21D;54240;51.096;5.878;2022-07-06T09:53:10;25.13;-6.00
67358;HTU21D;54240;51.096;5.878;2022-07-06T09:55:36;23.83;-6.00
67358;HTU21D;54240;51.096;5.878;2022-07-06T09:58:04;23.84;-6.00
67358;HTU21D;54240;51.096;5.878;2022-07-06T10:00:30;23.55;-6.00
67358;HTU21D;54240;51.096;5.878;2022-07-06T10:02:56;23.25;-6.00
67358;HTU21D;54240;51.096;5.878;2022-07-06T10:05:23;23.34;-6.00
67358;HTU21D;54240;51.096;5.878;2022-07-06T10:08:00;23.31;-6.00
67358;HTU21D;54240;51.096;5.878;2022-07-06T10:10:28;23.13;-6.00
67358;HTU21D;54240;51.096;5.878;2022-07-06T10:12:56;23.21;-6.00
67358;HTU21D;54240;51.096;5.878;2022-07-06T10:15:26;23.17;-6.00
67358;HTU21D;54240;51.096;5.878;2022-07-06T10:17:54;23.47;-6.00
67358;HTU21D;54240;51.096;5.878;2022-07-06T10:20:21;23.23;-6.00
67358;HTU21D;54240;51.096;5.878;2022-07-06T10:22:48;23.31;-6.00
67358;HTU21D;54240;51.096;5.878;2022-07-06T10:25:18;23.68;-6.00
67358;HTU21D;54240;51.096;5.878;2022-07-06T10:27:47;24.02;-6.00
67358;HTU21D;54240;51.096;5.878;2022-07-06T10:30:15;24.46;-6.00
67358;HTU21D;54240;51.096;5.878;2022-07-06T10:32:44;24.84;-6.00
67358;HTU21D;54240;51.096;5.878;2022-07-06T10:35:12;24.83;-6.00
67358;HTU21D;54240;51.096;5.878;2022-07-06T10:37:38;24.55;-6.00
67358;HTU21D;54240;51.096;5.878;2022-07-06T10:40:15;24.09;-6.00
67358;HTU21D;54240;51.096;5.878;2022-07-06T10:43:01;23.82;-6.00
67358;HTU21D;54240;51.096;5.878;2022-07-06T10:50:41;24.04;-6.00
67358;HTU21D;54240;51.096;5.878;2022-07-06T10:53:12;24.41;-6.00
67358;HTU21D;54240;51.096;5.878;2022-07-06T10:55:42;24.31;-6.00
67358;HTU21D;54240;51.096;5.878;2022-07-06T10:58:08;23.89;-6.00
67358;HTU21D;54240;51.096;5.878;2022-07-06T11:00:56;23.68;-6.00
67358;HTU21D;54240;51.096;5.878;2022-07-06T11:06:23;23.47;-6.00
67358;HTU21D;54240;51.096;5.878;2022-07-06T11:14:09;23.71;-6.00
67358;HTU21D;54240;51.096;5.878;2022-07-06T11:19:17;23.96;-6.00
67358;HTU21D;54240;51.096;5.878;2022-07-06T11:21:50;23.60;-6.00
67358;HTU21D;54240;51.096;5.878;2022-07-06T11:24:19;23.53;-6.00
67358;HTU21D;54240;51.096;5.878;2022-07-06T11:26:47;23.42;-6.00
67358;HTU21D;54240;51.096;5.878;2022-07-06T11:29:17;23.32;-6.00
67358;HTU21D;54240;51.096;5.878;2022-07-06T11:31:45;23.81;-6.00
67358;HTU21D;54240;51.096;5.878;2022-07-06T11:34:21;24.17;-6.00
67358;HTU21D;54240;51.096;5.878;2022-07-06T11:36:48;23.61;-6.00
67358;HTU21D;54240;51.096;5.878;2022-07-06T11:39:15;23.56;-6.00
67358;HTU21D;54240;51.096;5.878;2022-07-06T11:41:42;23.53;-6.00
67358;HTU21D;54240;51.096;5.878;2022-07-06T11:44:08;23.43;-6.00
67358;HTU21D;54240;51.096;5.878;2022-07-06T11:46:34;23.59;-6.00
67358;HTU21D;54240;51.096;5.878;2022-07-06T11:49:05;23.96;-6.00
67358;HTU21D;54240;51.096;5.878;2022-07-06T11:51:37;24.50;-6.00
67358;HTU21D;54240;51.096;5.878;2022-07-06T11:54:09;24.19;-6.00
67358;HTU21D;54240;51.096;5.878;2022-07-06T11:56:36;23.76;-6.00
67358;HTU21D;54240;51.096;5.878;2022-07-06T11:59:03;23.87;-6.00
67358;HTU21D;54240;51.096;5.878;2022-07-06T12:01:30;23.76;-6.00
67358;HTU21D;54240;51.096;5.878;2022-07-06T12:04:01;24.18;-6.00
67358;HTU21D;54240;51.096;5.878;2022-07-06T12:06:30;24.56;-6.00
67358;HTU21D;54240;51.096;5.878;2022-07-06T12:08:58;24.83;-6.00
67358;HTU21D;54240;51.096;5.878;2022-07-06T12:11:29;24.71;-6.00
67358;HTU21D;54240;51.096;5.878;2022-07-06T12:14:00;24.73;-6.00
67358;HTU21D;54240;51.096;5.878;2022-07-06T12:16:34;24.48;-6.00
67358;HTU21D;54240;51.096;5.878;2022-07-06T12:19:03;24.55;-6.00
67358;HTU21D;54240;51.096;5.878;2022-07-06T12:21:30;24.74;-6.00
67358;HTU21D;54240;51.096;5.878;2022-07-06T12:23:57;25.05;-6.00
67358;HTU21D;54240;51.096;5.878;2022-07-06T12:26:25;24.62;-6.00
67358;HTU21D;54240;51.096;5.878;2022-07-06T12:29:05;24.48;-6.00
67358;HTU21D;54240;51.096;5.878;2022-07-06T12:31:37;24.57;-6.00
67358;HTU21D;54240;51.096;5.878;2022-07-06T12:34:05;24.84;-6.00
67358;HTU21D;54240;51.096;5.878;2022-07-06T12:36:42;25.23;-6.00
67358;HTU21D;54240;51.096;5.878;2022-07-06T12:39:13;25.16;-6.00
67358;HTU21D;54240;51.096;5.878;2022-07-06T12:44:11;25.24;-6.00
67358;HTU21D;54240;51.096;5.878;2022-07-06T12:46:38;25.25;-6.00
67358;HTU21D;54240;51.096;5.878;2022-07-06T12:49:16;25.61;-6.00
67358;HTU21D;54240;51.096;5.878;2022-07-06T12:51:53;25.91;-6.00
67358;HTU21D;54240;51.096;5.878;2022-07-06T12:54:22;26.07;-6.00
67358;HTU21D;54240;51.096;5.878;2022-07-06T12:57:06;25.92;-6.00
67358;HTU21D;54240;51.096;5.878;2022-07-06T12:59:36;26.04;-6.00
67358;HTU21D;54240;51.096;5.878;2022-07-06T13:02:04;26.20;-6.00
67358;HTU21D;54240;51.096;5.878;2022-07-06T13:04:32;26.43;-6.00
67358;HTU21D;54240;51.096;5.878;2022-07-06T13:06:59;26.56;-6.00
67358;HTU21D;54240;51.096;5.878;2022-07-06T13:09:25;25.99;-6.00
67358;HTU21D;54240;51.096;5.878;2022-07-06T13:11:51;25.74;-6.00
67358;HTU21D;54240;51.096;5.878;2022-07-06T13:14:19;25.66;-6.00
67358;HTU21D;54240;51.096;5.878;2022-07-06T13:16:46;25.64;-6.00
67358;HTU21D;54240;51.096;5.878;2022-07-06T13:19:12;25.88;-6.00
67358;HTU21D;54240;51.096;5.878;2022-07-06T13:21:38;25.65;-6.00
67358;HTU21D;54240;51.096;5.878;2022-07-06T13:24:05;25.49;-6.00
67358;HTU21D;54240;51.096;5.878;2022-07-06T13:26:32;25.35;-6.00
67358;HTU21D;54240;51.096;5.878;2022-07-06T13:29:00;25.07;-6.00
67358;HTU21D;54240;51.096;5.878;2022-07-06T13:31:27;24.80;-6.00
67358;HTU21D;54240;51.096;5.878;2022-07-06T13:33:54;24.71;-6.00
67358;HTU21D;54240;51.096;5.878;2022-07-06T13:36:20;24.98;-6.00
67358;HTU21D;54240;51.096;5.878;2022-07-06T13:38:46;25.12;-6.00
67358;HTU21D;54240;51.096;5.878;2022-07-06T13:41:12;24.74;-6.00
67358;HTU21D;54240;51.096;5.878;2022-07-06T13:43:37;24.84;-6.00
67358;HTU21D;54240;51.096;5.878;2022-07-06T13:46:04;25.12;-6.00
67358;HTU21D;54240;51.096;5.878;2022-07-06T13:48:32;24.82;-6.00
67358;HTU21D;54240;51.096;5.878;2022-07-06T13:50:58;25.04;-6.00
67358;HTU21D;54240;51.096;5.878;2022-07-06T13:53:24;25.45;-6.00
67358;HTU21D;54240;51.096;5.878;2022-07-06T13:55:50;25.64;-6.00
67358;HTU21D;54240;51.096;5.878;2022-07-06T13:58:16;25.35;-6.00
67358;HTU21D;54240;51.096;5.878;2022-07-06T14:00:42;25.25;-6.00
67358;HTU21D;54240;51.096;5.878;2022-07-06T14:03:08;24.71;-6.00
67358;HTU21D;54240;51.096;5.878;2022-07-06T14:05:34;24.91;-6.00
67358;HTU21D;54240;51.096;5.878;2022-07-06T14:08:00;25.05;-6.00
67358;HTU21D;54240;51.096;5.878;2022-07-06T14:10:27;25.03;-6.00
67358;HTU21D;54240;51.096;5.878;2022-07-06T14:12:53;25.07;-6.00
67358;HTU21D;54240;51.096;5.878;2022-07-06T14:15:20;25.44;-6.00
67358;HTU21D;54240;51.096;5.878;2022-07-06T14:17:46;25.42;-6.00
67358;HTU21D;54240;51.096;5.878;2022-07-06T14:20:14;25.00;-6.00
67358;HTU21D;54240;51.096;5.878;2022-07-06T14:22:40;24.66;-6.00
67358;HTU21D;54240;51.096;5.878;2022-07-06T14:25:07;24.84;-6.00
67358;HTU21D;54240;51.096;5.878;2022-07-06T14:27:34;24.95;-6.00
67358;HTU21D;54240;51.096;5.878;2022-07-06T14:30:00;25.03;-6.00
67358;HTU21D;54240;51.096;5.878;2022-07-06T14:32:25;24.83;-6.00
67358;HTU21D;54240;51.096;5.878;2022-07-06T14:34:51;24.95;-6.00
67358;HTU21D;54240;51.096;5.878;2022-07-06T14:37:17;25.03;-6.00
67358;HTU21D;54240;51.096;5.878;2022-07-06T14:39:43;25.14;-6.00
67358;HTU21D;54240;51.096;5.878;2022-07-06T14:42:12;24.97;-6.00
67358;HTU21D;54240;51.096;5.878;2022-07-06T14:44:38;24.87;-6.00
67358;HTU21D;54240;51.096;5.878;2022-07-06T14:47:04;25.01;-6.00
67358;HTU21D;54240;51.096;5.878;2022-07-06T14:49:30;25.04;-6.00
67358;HTU21D;54240;51.096;5.878;2022-07-06T14:51:57;25.42;-6.00
67358;HTU21D;54240;51.096;5.878;2022-07-06T14:54:26;25.21;-6.00
67358;HTU21D;54240;51.096;5.878;2022-07-06T14:56:52;25.79;-6.00
67358;HTU21D;54240;51.096;5.878;2022-07-06T14:59:18;26.15;-6.00
67358;HTU21D;54240;51.096;5.878;2022-07-06T15:01:44;25.92;-6.00
67358;HTU21D;54240;51.096;5.878;2022-07-06T15:04:10;25.60;-6.00
67358;HTU21D;54240;51.096;5.878;2022-07-06T15:06:37;25.67;-6.00
67358;HTU21D;54240;51.096;5.878;2022-07-06T15:09:03;25.60;-6.00
67358;HTU21D;54240;51.096;5.878;2022-07-06T15:11:33;25.64;-6.00
67358;HTU21D;54240;51.096;5.878;2022-07-06T15:13:59;25.67;-6.00
67358;HTU21D;54240;51.096;5.878;2022-07-06T15:16:25;25.58;-6.00
67358;HTU21D;54240;51.096;5.878;2022-07-06T15:18:51;25.37;-6.00
67358;HTU21D;54240;51.096;5.878;2022-07-06T15:21:17;25.23;-6.00
67358;HTU21D;54240;51.096;5.878;2022-07-06T15:23:43;25.03;-6.00
67358;HTU21D;54240;51.096;5.878;2022-07-06T15:26:10;25.30;-6.00
67358;HTU21D;54240;51.096;5.878;2022-07-06T15:28:35;25.04;-6.00
67358;HTU21D;54240;51.096;5.878;2022-07-06T15:31:01;25.36;-6.00